Time;durP1;ratioP1;P1;durP2;ratioP2;P2;SDS_P1;SDS_P2;PMS_P1;PMS_P2;Temp;Humidity;BMP_temperature;BMP_pressure;BME280_temperature;BME280_humidity;BME280_pressure;Samples;Min_cycle;Max_cycle;Signal;HPM_P1;HPM_P2
2022/07/13 00:00:36;;;;;;;;;;;25.70;97.60;;;;;;5075826;28;19908;-81
2022/07/13 00:03:03;;;;;;;;;;;25.70;98.00;;;;;;5075881;28;19971;-82
2022/07/13 00:05:28;;;;;;;;;;;25.80;97.80;;;;;;5075688;28;19981;-80
2022/07/13 00:07:54;;;;;;;;;;;25.60;99.00;;;;;;5057510;28;20416;-81
2022/07/13 00:10:20;;;;;;;;;;;25.60;98.50;;;;;;5075708;28;19908;-81
2022/07/13 00:12:45;;;;;;;;;;;25.60;98.30;;;;;;5076313;28;19908;-81
2022/07/13 00:15:11;;;;;;;;;;;25.60;98.50;;;;;;5075339;28;19934;-82
2022/07/13 00:17:36;;;;;;;;;;;25.50;99.20;;;;;;5075563;28;19995;-82
2022/07/13 00:20:03;;;;;;;;;;;25.40;99.90;;;;;;5075610;28;19908;-81
2022/07/13 00:22:28;;;;;;;;;;;25.20;99.90;;;;;;5075475;28;19995;-81
2022/07/13 00:24:54;;;;;;;;;;;24.90;99.90;;;;;;5075068;28;20011;-81
2022/07/13 00:27:19;;;;;;;;;;;24.90;99.90;;;;;;5057315;28;19952;-80
2022/07/13 00:29:45;;;;;;;;;;;25.00;99.90;;;;;;5075448;28;19913;-82
2022/07/13 00:32:10;;;;;;;;;;;24.60;99.90;;;;;;5075311;28;20363;-81
2022/07/13 00:34:36;;;;;;;;;;;24.60;99.90;;;;;;5075304;28;19915;-81
2022/07/13 00:37:02;;;;;;;;;;;24.70;99.90;;;;;;5074612;28;19913;-81
2022/07/13 00:39:27;;;;;;;;;;;24.70;99.90;;;;;;5075152;28;19909;-80
2022/07/13 00:41:53;;;;;;;;;;;24.70;99.90;;;;;;5075076;28;19920;-80
2022/07/13 00:44:18;;;;;;;;;;;24.60;99.90;;;;;;5075072;28;20315;-81
2022/07/13 00:46:50;;;;;;;;;;;24.60;99.90;;;;;;5074466;28;19912;-80
2022/07/13 00:49:16;;;;;;;;;;;24.50;99.90;;;;;;5074695;28;19955;-81
2022/07/13 00:51:42;;;;;;;;;;;24.50;99.90;;;;;;5074844;28;19919;-82
2022/07/13 00:54:08;;;;;;;;;;;24.30;99.90;;;;;;5074832;28;19909;-82
2022/07/13 00:56:34;;;;;;;;;;;24.30;99.90;;;;;;5074391;28;20292;-81
2022/07/13 00:58:59;;;;;;;;;;;24.30;99.90;;;;;;5074889;28;19908;-79
2022/07/13 01:01:26;;;;;;;;;;;24.10;99.90;;;;;;5074524;28;19912;-79
2022/07/13 01:03:51;;;;;;;;;;;24.20;99.90;;;;;;5074700;28;20385;-81
2022/07/13 01:06:17;;;;;;;;;;;24.10;99.90;;;;;;5074163;28;19919;-80
2022/07/13 01:08:43;;;;;;;;;;;24.10;99.90;;;;;;5056655;28;19995;-79
2022/07/13 01:11:09;;;;;;;;;;;24.00;99.90;;;;;;5074665;28;19956;-80
2022/07/13 01:13:36;;;;;;;;;;;24.00;99.90;;;;;;5074741;28;19916;-81
2022/07/13 01:16:03;;;;;;;;;;;23.90;99.90;;;;;;5074165;28;20331;-80
2022/07/13 01:18:28;;;;;;;;;;;23.80;99.90;;;;;;5074317;28;19909;-80
2022/07/13 01:20:54;;;;;;;;;;;23.70;99.90;;;;;;5073662;28;19953;-80
2022/07/13 01:23:20;;;;;;;;;;;23.70;99.90;;;;;;5074282;28;19909;-81
2022/07/13 01:25:46;;;;;;;;;;;23.60;99.90;;;;;;5073597;28;20354;-80
2022/07/13 01:28:14;;;;;;;;;;;23.40;99.90;;;;;;5074283;28;20434;-80
2022/07/13 01:30:40;;;;;;;;;;;23.40;99.90;;;;;;5074105;28;19908;-79
2022/07/13 01:33:05;;;;;;;;;;;23.30;99.90;;;;;;5080343;28;19923;-80
2022/07/13 01:35:31;;;;;;;;;;;23.30;99.90;;;;;;5089859;28;19956;-80
2022/07/13 01:37:56;;;;;;;;;;;23.10;99.90;;;;;;5073974;28;19999;-81
2022/07/13 01:40:22;;;;;;;;;;;22.80;99.90;;;;;;5073724;28;19916;-81
2022/07/13 01:42:51;;;;;;;;;;;22.80;99.90;;;;;;5074097;28;20374;-80
2022/07/13 01:45:18;;;;;;;;;;;22.90;99.90;;;;;;5073498;28;19947;-81
2022/07/13 01:47:45;;;;;;;;;;;22.90;99.90;;;;;;5073662;28;19915;-81
2022/07/13 01:50:12;;;;;;;;;;;22.90;99.90;;;;;;5073892;28;19999;-78
2022/07/13 01:52:38;;;;;;;;;;;22.80;99.90;;;;;;5073739;28;19914;-81
2022/07/13 01:55:04;;;;;;;;;;;22.60;99.90;;;;;;5073782;28;19908;-81
2022/07/13 01:57:30;;;;;;;;;;;22.60;99.90;;;;;;5073513;28;19915;-79
2022/07/13 02:00:04;;;;;;;;;;;22.30;99.90;;;;;;5073547;28;19909;-79
2022/07/13 02:02:29;;;;;;;;;;;22.60;99.90;;;;;;5073733;28;19909;-80
2022/07/13 02:04:55;;;;;;;;;;;22.80;99.90;;;;;;5073744;28;19935;-80
2022/07/13 02:07:21;;;;;;;;;;;22.70;99.90;;;;;;5073143;28;19916;-80
2022/07/13 02:09:47;;;;;;;;;;;22.80;99.90;;;;;;5073420;28;20323;-79
2022/07/13 02:12:13;;;;;;;;;;;22.70;99.90;;;;;;5073554;28;19916;-80
2022/07/13 02:14:38;;;;;;;;;;;22.60;99.90;;;;;;5073990;28;19908;-79
2022/07/13 02:17:04;;;;;;;;;;;22.30;99.90;;;;;;5070602;28;19908;-81
2022/07/13 02:19:30;;;;;;;;;;;22.10;99.90;;;;;;5093701;28;20006;-79
2022/07/13 02:21:55;;;;;;;;;;;22.20;99.90;;;;;;5093591;28;19923;-81
2022/07/13 02:24:21;;;;;;;;;;;22.10;99.90;;;;;;5093540;28;19959;-81
2022/07/13 02:26:46;;;;;;;;;;;22.10;99.90;;;;;;5093010;28;19912;-81
2022/07/13 02:29:12;;;;;;;;;;;22.10;99.90;;;;;;5093532;28;19960;-80
2022/07/13 02:31:37;;;;;;;;;;;22.20;99.90;;;;;;5093378;28;19916;-80
2022/07/13 02:34:03;;;;;;;;;;;22.20;99.90;;;;;;5093440;28;19908;-80
2022/07/13 02:36:28;;;;;;;;;;;22.20;99.90;;;;;;5093298;28;19908;-81
2022/07/13 02:38:54;;;;;;;;;;;22.10;99.90;;;;;;5093352;28;19908;-80
2022/07/13 02:41:20;;;;;;;;;;;22.00;99.90;;;;;;5093247;28;20019;-81
2022/07/13 02:43:45;;;;;;;;;;;21.80;99.90;;;;;;5093403;28;19915;-81
2022/07/13 02:46:11;;;;;;;;;;;21.80;99.90;;;;;;5092952;28;20573;-79
2022/07/13 02:48:36;;;;;;;;;;;21.70;99.90;;;;;;5093190;28;19915;-80
2022/07/13 02:51:02;;;;;;;;;;;21.60;99.90;;;;;;5093282;28;19908;-80
2022/07/13 02:53:28;;;;;;;;;;;21.50;99.90;;;;;;5093379;28;19948;-80
2022/07/13 02:55:53;;;;;;;;;;;21.40;99.90;;;;;;5092873;28;19915;-80
2022/07/13 02:58:19;;;;;;;;;;;21.50;99.90;;;;;;5093281;28;19987;-79
2022/07/13 03:00:44;;;;;;;;;;;21.60;99.90;;;;;;5093044;28;19961;-80
2022/07/13 03:03:10;;;;;;;;;;;21.60;99.90;;;;;;5093213;28;19916;-79
2022/07/13 03:05:36;;;;;;;;;;;21.60;99.90;;;;;;5092863;28;20372;-80
2022/07/13 03:08:01;;;;;;;;;;;21.60;99.90;;;;;;5093033;28;19919;-80
2022/07/13 03:10:27;;;;;;;;;;;21.60;99.90;;;;;;5093158;28;19908;-81
2022/07/13 03:12:52;;;;;;;;;;;21.20;99.90;;;;;;5093475;28;19913;-80
2022/07/13 03:15:18;;;;;;;;;;;21.10;99.90;;;;;;5093136;28;19951;-81
2022/07/13 03:17:44;;;;;;;;;;;21.20;99.90;;;;;;5092307;28;19915;-80
2022/07/13 03:20:10;;;;;;;;;;;21.30;99.90;;;;;;5093075;28;19909;-81
2022/07/13 03:22:35;;;;;;;;;;;21.20;99.90;;;;;;5092970;28;19908;-79
2022/07/13 03:25:03;;;;;;;;;;;21.30;99.90;;;;;;5092885;28;19923;-81
2022/07/13 03:27:28;;;;;;;;;;;21.30;99.90;;;;;;5092351;28;19908;-81
2022/07/13 03:29:54;;;;;;;;;;;21.30;99.90;;;;;;5092881;28;19909;-81
2022/07/13 03:32:19;;;;;;;;;;;21.30;99.90;;;;;;5092893;28;19908;-81
2022/07/13 03:34:45;;;;;;;;;;;21.20;99.90;;;;;;5092930;28;19908;-81
2022/07/13 03:37:11;;;;;;;;;;;21.20;99.90;;;;;;5092375;28;19947;-80
2022/07/13 03:39:37;;;;;;;;;;;21.10;99.90;;;;;;5092935;28;19908;-81
2022/07/13 03:42:03;;;;;;;;;;;21.10;99.90;;;;;;5092425;28;19954;-81
2022/07/13 03:44:28;;;;;;;;;;;21.10;99.90;;;;;;5095755;28;19970;-80
2022/07/13 03:46:54;;;;;;;;;;;21.10;99.90;;;;;;5095950;28;19937;-80
2022/07/13 03:49:19;;;;;;;;;;;21.00;99.90;;;;;;5096137;28;19970;-80
2022/07/13 03:51:46;;;;;;;;;;;21.00;99.90;;;;;;5096440;28;19908;-81
2022/07/13 03:54:12;;;;;;;;;;;20.90;99.90;;;;;;5096282;28;19914;-81
2022/07/13 03:56:39;;;;;;;;;;;20.90;99.90;;;;;;5095926;28;19991;-79
2022/07/13 03:59:05;;;;;;;;;;;20.90;99.90;;;;;;5096200;28;19908;-80
2022/07/13 04:01:31;;;;;;;;;;;20.90;99.90;;;;;;5095910;28;19908;-80
2022/07/13 04:03:58;;;;;;;;;;;20.90;99.90;;;;;;5096118;28;19908;-80
2022/07/13 04:06:24;;;;;;;;;;;20.80;99.90;;;;;;5077482;28;20383;-81
2022/07/13 04:08:50;;;;;;;;;;;20.80;99.90;;;;;;5096120;28;19947;-80
2022/07/13 04:11:16;;;;;;;;;;;20.80;99.90;;;;;;5095926;28;20451;-81
2022/07/13 04:13:42;;;;;;;;;;;20.70;99.90;;;;;;5096290;28;19948;-81
2022/07/13 04:16:08;;;;;;;;;;;20.70;99.90;;;;;;5095845;28;20323;-82
2022/07/13 04:18:33;;;;;;;;;;;20.70;99.90;;;;;;5095808;28;20368;-80
2022/07/13 04:20:59;;;;;;;;;;;20.80;99.90;;;;;;5095811;28;19908;-79
2022/07/13 04:23:25;;;;;;;;;;;20.70;99.90;;;;;;5095801;28;19915;-78
2022/07/13 04:25:51;;;;;;;;;;;20.70;99.90;;;;;;5095163;28;19912;-80
2022/07/13 04:28:16;;;;;;;;;;;20.70;99.90;;;;;;5095655;28;20003;-79
2022/07/13 04:30:42;;;;;;;;;;;20.70;99.90;;;;;;5095602;28;19909;-80
2022/07/13 04:33:07;;;;;;;;;;;20.70;99.90;;;;;;5095575;28;20325;-80
2022/07/13 04:35:33;;;;;;;;;;;20.70;99.90;;;;;;5095757;28;19914;-78
2022/07/13 04:37:58;;;;;;;;;;;20.70;99.90;;;;;;5094858;28;20292;-80
2022/07/13 04:40:24;;;;;;;;;;;20.60;99.90;;;;;;5095151;28;20012;-81
2022/07/13 04:42:50;;;;;;;;;;;20.60;99.90;;;;;;5095514;28;19962;-79
2022/07/13 04:45:18;;;;;;;;;;;20.50;99.90;;;;;;5095232;28;20288;-80
2022/07/13 04:47:44;;;;;;;;;;;20.50;99.90;;;;;;5095116;28;19908;-79
2022/07/13 04:50:09;;;;;;;;;;;20.50;99.90;;;;;;5095282;28;20356;-80
2022/07/13 04:52:35;;;;;;;;;;;20.30;99.90;;;;;;5095207;28;19908;-80
2022/07/13 04:55:00;;;;;;;;;;;19.90;99.90;;;;;;5094146;28;19951;-79
2022/07/13 04:57:26;;;;;;;;;;;19.90;99.90;;;;;;5094615;28;19908;-80
2022/07/13 04:59:52;;;;;;;;;;;20.20;99.90;;;;;;5095133;28;19915;-80
2022/07/13 05:02:17;;;;;;;;;;;20.50;99.90;;;;;;5094960;28;19946;-81
2022/07/13 05:04:44;;;;;;;;;;;20.70;99.90;;;;;;5094870;28;20375;-79
2022/07/13 05:07:10;;;;;;;;;;;20.90;99.90;;;;;;5094545;28;20372;-79
2022/07/13 05:09:35;;;;;;;;;;;20.70;99.90;;;;;;5094893;28;19909;-80
2022/07/13 05:12:01;;;;;;;;;;;20.70;99.90;;;;;;5094845;28;20328;-79
2022/07/13 05:14:27;;;;;;;;;;;20.90;99.90;;;;;;5095266;28;19908;-81
2022/07/13 05:16:52;;;;;;;;;;;21.00;99.90;;;;;;5094382;28;19912;-81
2022/07/13 05:19:18;;;;;;;;;;;21.20;99.90;;;;;;5094624;28;19931;-80
2022/07/13 05:21:43;;;;;;;;;;;21.20;99.90;;;;;;5094923;28;19961;-80
2022/07/13 05:24:09;;;;;;;;;;;21.30;99.90;;;;;;5094681;28;19915;-81
2022/07/13 05:26:36;;;;;;;;;;;21.20;99.90;;;;;;5094355;28;19916;-80
2022/07/13 05:29:04;;;;;;;;;;;21.30;99.90;;;;;;5094594;28;19919;-79
2022/07/13 05:31:30;;;;;;;;;;;21.40;99.90;;;;;;5094397;28;19962;-81
2022/07/13 05:33:56;;;;;;;;;;;21.60;99.90;;;;;;5094390;28;20003;-80
2022/07/13 05:36:21;;;;;;;;;;;21.60;99.90;;;;;;5094025;28;19951;-80
2022/07/13 05:38:47;;;;;;;;;;;21.60;99.90;;;;;;5094257;28;19931;-80
2022/07/13 05:41:13;;;;;;;;;;;21.70;99.90;;;;;;5093991;28;19999;-79
2022/07/13 05:43:40;;;;;;;;;;;21.80;99.90;;;;;;5094179;28;19912;-79
2022/07/13 05:46:06;;;;;;;;;;;21.70;99.90;;;;;;5093840;28;19912;-80
2022/07/13 05:48:32;;;;;;;;;;;21.80;99.90;;;;;;5093920;28;20379;-79
2022/07/13 05:50:58;;;;;;;;;;;22.00;99.90;;;;;;5094100;28;19953;-79
2022/07/13 05:53:23;;;;;;;;;;;22.10;99.90;;;;;;5094046;28;19908;-80
2022/07/13 05:55:49;;;;;;;;;;;22.30;99.90;;;;;;5093947;28;19914;-80
2022/07/13 05:58:14;;;;;;;;;;;22.30;99.90;;;;;;5093419;28;19923;-81
2022/07/13 06:00:40;;;;;;;;;;;22.40;99.90;;;;;;5093665;28;19908;-80
2022/07/13 06:03:05;;;;;;;;;;;22.50;99.90;;;;;;5093943;28;19939;-80
2022/07/13 06:05:31;;;;;;;;;;;22.60;99.90;;;;;;5093557;28;20397;-81
2022/07/13 06:07:57;;;;;;;;;;;22.80;99.90;;;;;;5093362;28;19908;-81
2022/07/13 06:10:22;;;;;;;;;;;22.80;99.90;;;;;;5093749;28;19961;-80
2022/07/13 06:12:48;;;;;;;;;;;22.80;99.90;;;;;;5093584;28;19908;-81
2022/07/13 06:15:14;;;;;;;;;;;22.90;99.90;;;;;;5094179;28;20334;-81
2022/07/13 06:17:39;;;;;;;;;;;22.90;99.90;;;;;;5093173;28;20338;-81
2022/07/13 06:20:05;;;;;;;;;;;22.90;99.90;;;;;;5093759;28;19915;-81
2022/07/13 06:22:31;;;;;;;;;;;23.00;99.90;;;;;;5093528;28;20288;-79
2022/07/13 06:24:57;;;;;;;;;;;23.00;99.90;;;;;;5093358;28;19908;-79
2022/07/13 06:27:22;;;;;;;;;;;23.20;99.90;;;;;;5093071;28;20287;-81
2022/07/13 06:29:48;;;;;;;;;;;23.20;99.90;;;;;;5093438;28;19908;-81
2022/07/13 06:32:13;;;;;;;;;;;23.20;99.90;;;;;;5093543;28;19908;-80
2022/07/13 06:34:39;;;;;;;;;;;23.30;99.90;;;;;;5093340;28;19908;-81
2022/07/13 06:37:06;;;;;;;;;;;23.50;99.90;;;;;;5092889;28;19962;-81
2022/07/13 06:39:32;;;;;;;;;;;23.60;99.90;;;;;;5075292;28;19916;-80
2022/07/13 06:41:58;;;;;;;;;;;23.60;99.90;;;;;;5093104;28;19974;-80
2022/07/13 06:44:23;;;;;;;;;;;23.60;99.90;;;;;;5093515;28;20003;-81
2022/07/13 06:46:49;;;;;;;;;;;23.80;99.90;;;;;;5092947;28;19912;-80
2022/07/13 06:49:15;;;;;;;;;;;24.10;99.90;;;;;;5093071;28;19998;-80
2022/07/13 06:51:41;;;;;;;;;;;24.10;99.90;;;;;;5093272;28;20049;-80
2022/07/13 06:54:06;;;;;;;;;;;24.20;99.90;;;;;;5093303;28;19947;-81
2022/07/13 06:56:32;;;;;;;;;;;24.40;99.90;;;;;;5093136;28;19908;-80
2022/07/13 06:58:57;;;;;;;;;;;24.40;99.90;;;;;;5093167;28;19999;-80
2022/07/13 07:01:23;;;;;;;;;;;24.70;99.90;;;;;;5093037;28;19952;-80
2022/07/13 07:03:49;;;;;;;;;;;24.80;99.90;;;;;;5093230;28;19934;-81
2022/07/13 07:06:14;;;;;;;;;;;25.00;99.90;;;;;;5093055;28;19919;-81
2022/07/13 07:08:40;;;;;;;;;;;25.20;99.90;;;;;;5092835;28;19909;-80
2022/07/13 07:11:06;;;;;;;;;;;25.30;99.90;;;;;;5093100;28;19995;-80
2022/07/13 07:13:31;;;;;;;;;;;25.40;99.90;;;;;;5093484;28;19919;-81
2022/07/13 07:15:59;;;;;;;;;;;25.50;99.90;;;;;;5093137;28;19912;-81
2022/07/13 07:18:24;;;;;;;;;;;25.50;99.90;;;;;;5094006;28;20002;-80
2022/07/13 07:20:50;;;;;;;;;;;25.60;99.90;;;;;;5096941;28;19971;-80
2022/07/13 07:23:17;;;;;;;;;;;25.80;99.90;;;;;;5096936;28;20372;-80
2022/07/13 07:25:43;;;;;;;;;;;26.00;99.90;;;;;;5096643;28;20029;-81
2022/07/13 07:28:09;;;;;;;;;;;26.20;99.90;;;;;;5096308;28;19908;-81
2022/07/13 07:30:35;;;;;;;;;;;26.30;99.90;;;;;;5078649;28;20287;-81
2022/07/13 07:33:00;;;;;;;;;;;26.50;99.90;;;;;;5096457;28;20002;-81
2022/07/13 07:35:26;;;;;;;;;;;26.60;99.90;;;;;;5096804;28;20280;-82
2022/07/13 07:37:52;;;;;;;;;;;26.70;99.70;;;;;;5096214;28;20007;-82
2022/07/13 07:40:17;;;;;;;;;;;26.90;98.30;;;;;;5096384;28;20277;-81
2022/07/13 07:42:43;;;;;;;;;;;28.20;95.10;;;;;;5096660;28;19916;-82
2022/07/13 07:45:09;;;;;;;;;;;30.10;89.80;;;;;;5096418;28;19912;-80
2022/07/13 07:47:35;;;;;;;;;;;32.70;77.60;;;;;;5096123;28;19957;-80
2022/07/13 07:50:01;;;;;;;;;;;34.90;70.80;;;;;;5096248;28;20356;-80
2022/07/13 07:52:27;;;;;;;;;;;36.30;64.60;;;;;;5096237;28;19908;-81
2022/07/13 07:54:52;;;;;;;;;;;37.30;62.70;;;;;;5096254;28;19912;-80
2022/07/13 07:57:18;;;;;;;;;;;35.80;59.10;;;;;;5095789;28;19978;-80
2022/07/13 07:59:43;;;;;;;;;;;36.80;58.70;;;;;;5096288;28;19908;-80
2022/07/13 08:02:10;;;;;;;;;;;35.40;58.10;;;;;;5095992;28;19912;-81
2022/07/13 08:04:36;;;;;;;;;;;35.30;58.90;;;;;;5096101;28;19908;-80
2022/07/13 08:07:01;;;;;;;;;;;36.20;59.10;;;;;;5095581;28;19924;-80
2022/07/13 08:09:27;;;;;;;;;;;36.80;58.50;;;;;;5097112;28;19908;-81
2022/07/13 08:11:53;;;;;;;;;;;36.80;57.90;;;;;;5096333;28;19912;-81
2022/07/13 08:14:18;;;;;;;;;;;36.20;57.00;;;;;;5096356;28;19999;-80
2022/07/13 08:16:44;;;;;;;;;;;35.40;58.80;;;;;;5095647;28;19909;-81
2022/07/13 08:19:10;;;;;;;;;;;35.10;58.80;;;;;;5095764;28;19987;-81
2022/07/13 08:21:35;;;;;;;;;;;34.70;59.50;;;;;;5095737;28;19958;-80
2022/07/13 08:24:01;;;;;;;;;;;34.40;60.20;;;;;;5095592;28;19912;-81
2022/07/13 08:26:28;;;;;;;;;;;34.20;61.00;;;;;;5095569;28;19912;-81
2022/07/13 08:28:55;;;;;;;;;;;34.50;61.00;;;;;;5075743;28;19908;-81
2022/07/13 08:31:22;;;;;;;;;;;34.40;60.50;;;;;;5075258;28;19909;-81
2022/07/13 08:39:19;;;;;;;;;;;34.80;59.00;;;;;;5075195;28;20046;-80
2022/07/13 08:41:46;;;;;;;;;;;35.30;59.80;;;;;;5074968;28;19963;-81
2022/07/13 08:44:12;;;;;;;;;;;35.70;59.10;;;;;;5075122;28;20351;-81
2022/07/13 08:46:38;;;;;;;;;;;36.00;58.10;;;;;;5074992;28;20333;-81
2022/07/13 08:49:04;;;;;;;;;;;36.00;57.90;;;;;;5094377;28;19915;-80
2022/07/13 08:51:31;;;;;;;;;;;35.70;57.50;;;;;;5095125;28;19959;-81
2022/07/13 08:53:57;;;;;;;;;;;36.10;56.60;;;;;;5095253;28;20384;-81
2022/07/13 08:56:23;;;;;;;;;;;36.50;57.00;;;;;;5095043;28;19955;-81
2022/07/13 08:58:49;;;;;;;;;;;36.70;56.10;;;;;;5094686;28;19939;-81
2022/07/13 09:01:15;;;;;;;;;;;36.40;56.10;;;;;;5094750;28;20372;-81
2022/07/13 09:03:42;;;;;;;;;;;36.20;55.60;;;;;;5094944;28;19912;-81
2022/07/13 09:06:10;;;;;;;;;;;36.50;55.70;;;;;;5076692;28;20372;-80
2022/07/13 09:08:44;;;;;;;;;;;36.70;55.80;;;;;;5059743;28;19918;-81
2022/07/13 09:11:10;;;;;;;;;;;36.80;55.20;;;;;;5094789;28;19908;-81
2022/07/13 09:13:40;;;;;;;;;;;37.00;55.40;;;;;;5094314;28;19908;-81
2022/07/13 09:16:22;;;;;;;;;;;37.40;54.80;;;;;;5095322;28;19947;-81
2022/07/13 09:18:49;;;;;;;;;;;37.50;54.40;;;;;;5077280;28;19909;-81
2022/07/13 09:21:18;;;;;;;;;;;37.50;54.10;;;;;;5074251;28;19995;-81
2022/07/13 09:23:48;;;;;;;;;;;37.40;54.00;;;;;;5074137;28;19909;-80
2022/07/13 09:26:14;;;;;;;;;;;37.40;53.70;;;;;;5073670;28;19982;-81
2022/07/13 09:28:44;;;;;;;;;;;37.70;53.90;;;;;;5073486;28;19915;-81
2022/07/13 09:31:12;;;;;;;;;;;38.20;53.50;;;;;;5074187;28;19916;-81
2022/07/13 09:33:38;;;;;;;;;;;38.60;53.10;;;;;;5074113;28;19908;-81
2022/07/13 09:36:09;;;;;;;;;;;38.60;52.30;;;;;;5073983;28;20351;-81
2022/07/13 09:38:36;;;;;;;;;;;38.60;52.30;;;;;;5069695;28;19919;-81
2022/07/13 09:41:14;;;;;;;;;;;38.80;52.50;;;;;;5075432;28;19960;-81
2022/07/13 09:46:55;;;;;;;;;;;38.40;52.00;;;;;;5093627;28;19919;-81
2022/07/13 09:49:32;;;;;;;;;;;38.50;51.50;;;;;;5075639;28;19909;-81
2022/07/13 09:51:58;;;;;;;;;;;38.30;51.60;;;;;;5093957;28;19916;-81
2022/07/13 09:54:28;;;;;;;;;;;39.00;51.20;;;;;;5094027;28;19936;-81
2022/07/13 09:56:56;;;;;;;;;;;39.30;50.80;;;;;;5093956;28;19934;-81
2022/07/13 09:59:22;;;;;;;;;;;40.20;50.60;;;;;;5093985;28;19946;-82
2022/07/13 10:01:48;;;;;;;;;;;40.40;50.20;;;;;;5093551;28;19908;-81
2022/07/13 10:04:14;;;;;;;;;;;40.00;49.50;;;;;;5093808;28;19915;-80
2022/07/13 10:06:40;;;;;;;;;;;39.80;48.90;;;;;;5093799;28;19961;-81
2022/07/13 10:09:06;;;;;;;;;;;39.60;48.90;;;;;;5093146;28;19922;-81
2022/07/13 10:11:32;;;;;;;;;;;40.10;48.30;;;;;;5093689;28;19911;-81
2022/07/13 10:13:57;;;;;;;;;;;41.10;46.90;;;;;;5094171;28;19908;-81
2022/07/13 10:16:23;;;;;;;;;;;41.60;46.60;;;;;;5093666;28;19909;-82
2022/07/13 10:18:50;;;;;;;;;;;41.70;45.60;;;;;;5093105;28;19908;-81
2022/07/13 10:21:18;;;;;;;;;;;41.90;44.50;;;;;;5093594;28;19973;-81
2022/07/13 10:23:44;;;;;;;;;;;40.80;44.50;;;;;;5093412;28;19915;-81
2022/07/13 10:26:20;;;;;;;;;;;40.90;45.10;;;;;;5093508;28;19913;-81
2022/07/13 10:29:01;;;;;;;;;;;41.30;45.30;;;;;;5092974;28;19919;-82
2022/07/13 10:31:28;;;;;;;;;;;41.80;44.70;;;;;;5093530;28;20007;-81
2022/07/13 10:33:54;;;;;;;;;;;41.20;45.20;;;;;;5093388;28;20291;-82
2022/07/13 10:36:38;;;;;;;;;;;41.70;45.00;;;;;;5093491;28;20006;-81
2022/07/13 10:39:07;;;;;;;;;;;42.30;44.00;;;;;;5092888;28;20342;-81
2022/07/13 10:41:33;;;;;;;;;;;42.80;43.30;;;;;;5093135;28;19962;-82
2022/07/13 10:44:05;;;;;;;;;;;42.80;42.50;;;;;;5093282;28;19911;-82
2022/07/13 10:47:03;;;;;;;;;;;42.70;42.30;;;;;;5093287;28;19912;-82
2022/07/13 10:49:35;;;;;;;;;;;42.80;42.10;;;;;;5058801;28;19914;-82
2022/07/13 10:52:22;;;;;;;;;;;43.80;42.90;;;;;;5093257;28;19951;-82
2022/07/13 10:55:09;;;;;;;;;;;44.10;42.00;;;;;;5097214;28;20049;-82
2022/07/13 10:57:36;;;;;;;;;;;44.60;41.60;;;;;;5086451;28;19925;-81
2022/07/13 11:00:04;;;;;;;;;;;44.50;41.50;;;;;;5097324;28;19962;-81
2022/07/13 11:02:47;;;;;;;;;;;44.60;41.20;;;;;;5097352;28;19908;-81
2022/07/13 11:05:13;;;;;;;;;;;44.70;41.10;;;;;;5097256;28;19912;-83
2022/07/13 11:07:40;;;;;;;;;;;44.20;41.60;;;;;;5096986;28;19984;-82
2022/07/13 11:10:24;;;;;;;;;;;43.50;41.60;;;;;;5097140;28;19923;-81
2022/07/13 11:13:04;;;;;;;;;;;44.10;41.70;;;;;;5096909;28;19957;-82
2022/07/13 11:15:46;;;;;;;;;;;45.30;41.10;;;;;;5097699;28;19919;-82
2022/07/13 11:18:21;;;;;;;;;;;44.60;40.30;;;;;;5096606;28;19916;-82
2022/07/13 11:20:56;;;;;;;;;;;44.40;41.30;;;;;;5096982;28;19991;-82
2022/07/13 11:26:08;;;;;;;;;;;44.70;41.10;;;;;;5096475;28;20337;-82
2022/07/13 11:28:37;;;;;;;;;;;45.70;40.60;;;;;;5096357;28;19958;-82
2022/07/13 11:31:03;;;;;;;;;;;46.10;40.20;;;;;;5096703;28;20045;-82
2022/07/13 11:33:29;;;;;;;;;;;46.20;39.60;;;;;;5096710;28;19908;-82
2022/07/13 11:35:57;;;;;;;;;;;45.90;39.90;;;;;;5096569;28;19919;-82
2022/07/13 11:38:22;;;;;;;;;;;45.90;39.80;;;;;;5096193;28;19912;-81
2022/07/13 11:40:48;;;;;;;;;;;45.90;39.60;;;;;;5096454;28;19927;-82
2022/07/13 11:43:14;;;;;;;;;;;46.40;39.10;;;;;;5096491;28;19958;-82
2022/07/13 11:45:41;;;;;;;;;;;46.60;39.30;;;;;;5078456;28;19954;-82
2022/07/13 11:48:10;;;;;;;;;;;47.10;38.70;;;;;;5095862;28;19958;-82
2022/07/13 11:50:41;;;;;;;;;;;47.40;38.50;;;;;;5096387;28;19908;-82
2022/07/13 11:53:07;;;;;;;;;;;47.20;38.90;;;;;;5096349;28;20373;-82
2022/07/13 11:55:33;;;;;;;;;;;47.20;38.30;;;;;;5096259;28;19943;-81
2022/07/13 11:57:59;;;;;;;;;;;47.20;37.80;;;;;;5095873;28;19962;-82
2022/07/13 12:00:25;;;;;;;;;;;46.90;38.30;;;;;;5096133;28;19908;-81
2022/07/13 12:02:51;;;;;;;;;;;46.60;38.10;;;;;;5096278;28;19908;-82
2022/07/13 12:05:23;;;;;;;;;;;47.10;38.10;;;;;;5095425;28;19952;-81
2022/07/13 12:07:59;;;;;;;;;;;46.90;37.40;;;;;;5095803;28;20498;-82
2022/07/13 12:10:25;;;;;;;;;;;46.70;37.90;;;;;;5096051;28;19908;-82
2022/07/13 12:12:50;;;;;;;;;;;46.10;38.30;;;;;;5095906;28;19908;-81
2022/07/13 12:15:17;;;;;;;;;;;46.70;37.80;;;;;;5096405;28;19909;-82
2022/07/13 12:17:50;;;;;;;;;;;46.50;37.70;;;;;;5095907;28;20279;-82
2022/07/13 12:20:23;;;;;;;;;;;46.30;37.60;;;;;;5095757;28;20284;-82
2022/07/13 12:22:52;;;;;;;;;;;45.40;37.90;;;;;;5095721;28;20462;-82
2022/07/13 12:25:32;;;;;;;;;;;45.20;38.00;;;;;;5095589;28;20313;-82
2022/07/13 12:28:00;;;;;;;;;;;45.20;38.20;;;;;;5095314;28;19916;-82
2022/07/13 12:30:26;;;;;;;;;;;45.40;37.90;;;;;;5095537;28;19915;-81
2022/07/13 12:32:59;;;;;;;;;;;45.40;38.30;;;;;;5095593;28;19919;-82
2022/07/13 12:35:28;;;;;;;;;;;45.90;37.80;;;;;;5095481;28;19914;-81
2022/07/13 12:37:54;;;;;;;;;;;46.10;38.20;;;;;;5095005;28;19999;-82
2022/07/13 12:40:39;;;;;;;;;;;46.90;38.00;;;;;;5095163;28;19908;-82
2022/07/13 12:43:05;;;;;;;;;;;46.80;37.50;;;;;;5077308;28;20470;-82
2022/07/13 12:45:30;;;;;;;;;;;47.40;37.40;;;;;;5095170;28;19916;-81
2022/07/13 12:47:56;;;;;;;;;;;47.60;38.10;;;;;;5094990;28;19951;-82
2022/07/13 12:50:25;;;;;;;;;;;47.60;37.10;;;;;;5095180;28;20006;-82
2022/07/13 12:53:00;;;;;;;;;;;47.70;36.00;;;;;;5095359;28;19908;-81
2022/07/13 12:55:26;;;;;;;;;;;46.50;36.00;;;;;;5095242;28;19908;-81
2022/07/13 12:57:52;;;;;;;;;;;45.60;36.50;;;;;;5094978;28;20006;-82
2022/07/13 13:00:22;;;;;;;;;;;46.30;36.50;;;;;;5094886;28;19915;-81
2022/07/13 13:02:48;;;;;;;;;;;46.80;35.40;;;;;;5095311;28;19970;-82
2022/07/13 13:05:13;;;;;;;;;;;47.20;35.30;;;;;;5094919;28;19912;-81
2022/07/13 13:07:39;;;;;;;;;;;47.80;35.60;;;;;;5094981;28;19908;-82
2022/07/13 13:10:05;;;;;;;;;;;47.50;36.00;;;;;;5074759;28;19909;-82
2022/07/13 13:12:31;;;;;;;;;;;47.60;35.80;;;;;;5056401;28;20293;-82
2022/07/13 13:14:59;;;;;;;;;;;47.80;35.90;;;;;;5074895;28;20365;-82
2022/07/13 13:17:24;;;;;;;;;;;47.80;36.00;;;;;;5073807;28;19915;-82
2022/07/13 13:19:50;;;;;;;;;;;48.00;36.00;;;;;;5074243;28;19908;-82
2022/07/13 13:22:16;;;;;;;;;;;47.80;36.00;;;;;;5056372;28;20396;-82
2022/07/13 13:24:42;;;;;;;;;;;47.90;35.50;;;;;;5074399;28;19927;-82
2022/07/13 13:27:07;;;;;;;;;;;47.50;35.50;;;;;;5074269;28;19917;-82
2022/07/13 13:32:18;;;;;;;;;;;47.10;35.70;;;;;;5074258;28;20316;-82
2022/07/13 13:34:44;;;;;;;;;;;46.50;35.90;;;;;;5094109;28;19909;-82
2022/07/13 13:37:11;;;;;;;;;;;46.10;36.00;;;;;;5094087;28;19908;-82
2022/07/13 13:39:36;;;;;;;;;;;45.60;36.60;;;;;;5078536;28;19999;-82
2022/07/13 13:42:02;;;;;;;;;;;45.40;36.60;;;;;;5073819;28;20372;-82
2022/07/13 13:44:28;;;;;;;;;;;45.50;36.80;;;;;;5073930;28;19954;-82
2022/07/13 13:46:54;;;;;;;;;;;46.50;36.40;;;;;;5055752;28;20008;-82
2022/07/13 13:49:19;;;;;;;;;;;46.90;36.40;;;;;;5073412;28;19909;-82
2022/07/13 13:51:45;;;;;;;;;;;47.10;35.80;;;;;;5073728;28;20364;-82
2022/07/13 13:54:10;;;;;;;;;;;47.10;35.70;;;;;;5073917;28;19908;-82
2022/07/13 13:56:36;;;;;;;;;;;47.10;35.50;;;;;;5073621;28;19909;-82
2022/07/13 13:59:02;;;;;;;;;;;46.60;35.50;;;;;;5073449;28;20415;-82
2022/07/13 14:01:28;;;;;;;;;;;47.50;35.30;;;;;;5073454;28;19995;-82
2022/07/13 14:03:53;;;;;;;;;;;47.90;35.20;;;;;;5073593;28;19908;-82
2022/07/13 14:06:19;;;;;;;;;;;47.60;34.60;;;;;;5073525;28;19912;-83
2022/07/13 14:08:45;;;;;;;;;;;47.70;35.10;;;;;;5073191;28;19909;-83
2022/07/13 14:11:11;;;;;;;;;;;47.70;35.20;;;;;;5073677;28;19909;-82
2022/07/13 14:13:37;;;;;;;;;;;47.50;35.30;;;;;;5073224;28;19908;-82
2022/07/13 14:16:03;;;;;;;;;;;48.20;35.20;;;;;;5055875;28;20337;-82
2022/07/13 14:18:30;;;;;;;;;;;48.00;34.50;;;;;;5073167;28;19908;-82
2022/07/13 14:20:57;;;;;;;;;;;47.50;35.20;;;;;;5073694;28;19954;-82
2022/07/13 14:23:22;;;;;;;;;;;47.80;35.40;;;;;;5073387;28;19920;-82
2022/07/13 14:25:48;;;;;;;;;;;48.40;35.00;;;;;;5072931;28;20381;-82
2022/07/13 14:28:15;;;;;;;;;;;48.10;34.90;;;;;;5075242;28;19908;-82